Time,TemperatureF,DewpointF,PressureIn,WindDirection,WindDirectionDegrees,WindSpeedMPH,WindSpeedGustMPH,Humidity,HourlyPrecipIn,Conditions,Clouds,dailyrainin,SoftwareType,DateUTC
2013-04-17 00:13:00,51.7,50.0,30.15,ENE,76,3.0,4.0,94,0.00,,,0.01,weatherlink.com 1.10,2013-04-17 04:13:00,
2013-04-17 00:28:00,51.6,50.0,30.15,ENE,63,2.0,4.0,95,0.00,,,0.01,weatherlink.com 1.10,2013-04-17 04:28:00,
2013-04-17 00:43:00,51.5,50.0,30.15,ENE,67,3.0,4.0,95,0.00,,,0.01,weatherlink.com 1.10,2013-04-17 04:43:00,
2013-04-17 00:58:00,51.5,50.0,30.15,ENE,67,2.0,3.0,96,0.00,,,0.01,weatherlink.com 1.10,2013-04-17 04:58:00,
2013-04-17 01:13:00,51.6,51.0,30.15,ENE,67,2.0,3.0,96,0.00,,,0.01,weatherlink.com 1.10,2013-04-17 05:13:00,
2013-04-17 01:28:00,51.6,51.0,30.14,ENE,69,4.0,4.0,96,0.00,,,0.00,weatherlink.com 1.10,2013-04-17 05:28:00,
2013-04-17 01:43:00,51.9,51.0,30.14,ENE,71,2.0,5.0,96,0.00,,,0.00,weatherlink.com 1.10,2013-04-17 05:43:00,
2013-04-17 01:58:00,52.0,51.0,30.14,ENE,78,3.0,4.0,96,0.00,,,0.00,weatherlink.com 1.10,2013-04-17 05:58:00,
2013-04-17 02:13:00,51.9,51.0,30.13,ENE,78,2.0,4.0,96,0.00,,,0.00,weatherlink.com 1.10,2013-04-17 06:13:00,
2013-04-17 02:28:00,51.9,51.0,30.13,ENE,78,2.0,4.0,96,0.00,,,0.00,weatherlink.com 1.10,2013-04-17 06:28:00,
2013-04-17 02:44:00,51.9,51.0,30.14,ENE,78,2.0,3.0,97,0.00,,,0.00,weatherlink.com 1.10,2013-04-17 06:44:00,
2013-04-17 02:58:00,52.0,51.0,30.14,ENE,78,2.0,2.0,97,0.00,,,0.00,weatherlink.com 1.10,2013-04-17 06:58:00,
2013-04-17 03:13:00,51.7,51.0,30.13,ENE,78,1.0,2.0,96,0.00,,,0.00,weatherlink.com 1.10,2013-04-17 07:13:00,
2013-04-17 03:28:00,51.8,51.0,30.14,ENE,78,2.0,3.0,97,0.00,,,0.00,weatherlink.com 1.10,2013-04-17 07:28:00,
2013-04-17 03:43:00,51.7,51.0,30.13,ENE,78,1.0,2.0,97,0.00,,,0.00,weatherlink.com 1.10,2013-04-17 07:43:00,
2013-04-17 03:58:00,51.4,51.0,30.13,ENE,78,1.0,2.0,97,0.00,,,0.00,weatherlink.com 1.10,2013-04-17 07:58:00,
2013-04-17 04:13:00,51.5,51.0,30.14,ENE,78,1.0,2.0,97,0.00,,,0.00,weatherlink.com 1.10,2013-04-17 08:13:00,
2013-04-17 04:28:00,51.7,51.0,30.14,ENE,78,0.0,3.0,97,0.00,,,0.00,weatherlink.com 1.10,2013-04-17 08:28:00,
2013-04-17 04:43:00,51.6,51.0,30.16,SSW,194,5.0,23.0,96,0.01,,,0.01,weatherlink.com 1.10,2013-04-17 08:43:00,
2013-04-17 04:59:00,50.9,50.0,30.16,SW,229,8.0,15.0,96,0.02,,,0.02,weatherlink.com 1.10,2013-04-17 08:59:00,
2013-04-17 05:14:00,50.9,50.0,30.14,WSW,258,12.0,17.0,96,0.03,,,0.03,weatherlink.com 1.10,2013-04-17 09:14:00,
2013-04-17 05:29:00,50.8,50.0,30.14,SSW,192,7.0,19.0,96,0.03,,,0.03,weatherlink.com 1.10,2013-04-17 09:29:00,
2013-04-17 05:44:00,50.6,50.0,30.12,SW,223,3.0,14.0,96,0.02,,,0.03,weatherlink.com 1.10,2013-04-17 09:44:00,
2013-04-17 05:59:00,50.4,49.0,30.12,SW,236,5.0,14.0,96,0.02,,,0.04,weatherlink.com 1.10,2013-04-17 09:59:00,
2013-04-17 06:14:00,50.3,49.0,30.13,WSW,243,4.0,11.0,96,0.01,,,0.04,weatherlink.com 1.10,2013-04-17 10:14:00,
2013-04-17 06:29:00,50.7,50.0,30.13,WSW,258,2.0,10.0,96,0.01,,,0.04,weatherlink.com 1.10,2013-04-17 10:29:00,
2013-04-17 06:44:00,52.5,50.0,30.13,SW,215,5.0,11.0,90,0.01,,,0.04,weatherlink.com 1.10,2013-04-17 10:44:00,
2013-04-17 06:59:00,51.9,49.0,30.15,SW,221,7.0,10.0,91,0.00,,,0.04,weatherlink.com 1.10,2013-04-17 10:59:00,
2013-04-17 07:14:00,52.3,49.0,30.15,SSW,201,6.0,11.0,89,0.02,,,0.06,weatherlink.com 1.10,2013-04-17 11:14:00,
2013-04-17 07:29:00,51.0,49.0,30.16,ENE,67,0.0,4.0,93,0.05,,,0.09,weatherlink.com 1.10,2013-04-17 11:29:00,
2013-04-17 07:44:00,50.5,49.0,30.14,SW,214,3.0,4.0,95,0.10,,,0.14,weatherlink.com 1.10,2013-04-17 11:44:00,
2013-04-17 07:59:00,51.4,49.0,30.14,WSW,238,1.0,8.0,92,0.11,,,0.15,weatherlink.com 1.10,2013-04-17 11:59:00,
2013-04-17 08:14:00,52.3,50.0,30.14,WSW,240,1.0,4.0,90,0.09,,,0.15,weatherlink.com 1.10,2013-04-17 12:14:00,
2013-04-17 08:29:00,54.1,50.0,30.14,SSE,167,1.0,2.0,87,0.06,,,0.15,weatherlink.com 1.10,2013-04-17 12:29:00,
2013-04-17 08:44:00,56.6,49.0,30.15,East,94,1.0,5.0,77,0.01,,,0.15,weatherlink.com 1.10,2013-04-17 12:44:00,
2013-04-17 08:59:00,57.6,49.0,30.14,NE,46,0.0,3.0,73,0.00,,,0.15,weatherlink.com 1.10,2013-04-17 12:59:00,
2013-04-17 09:14:00,57.9,51.0,30.15,WSW,246,2.0,5.0,77,0.00,,,0.15,weatherlink.com 1.10,2013-04-17 13:14:00,
2013-04-17 09:29:00,56.2,52.0,30.15,WSW,238,1.0,4.0,86,0.00,,,0.15,weatherlink.com 1.10,2013-04-17 13:29:00,
2013-04-17 09:44:00,54.9,51.0,30.15,SW,227,0.0,5.0,85,0.00,,,0.15,weatherlink.com 1.10,2013-04-17 13:44:00,
2013-04-17 09:59:00,54.1,50.0,30.16,NW,305,10.0,10.0,86,0.03,,,0.18,weatherlink.com 1.10,2013-04-17 13:59:00,
2013-04-17 10:14:00,52.4,50.0,30.16,SSW,193,7.0,11.0,90,0.06,,,0.21,weatherlink.com 1.10,2013-04-17 14:14:00,
2013-04-17 10:29:00,51.3,49.0,30.16,WSW,250,6.0,13.0,93,0.07,,,0.22,weatherlink.com 1.10,2013-04-17 14:29:00,
2013-04-17 10:44:00,50.5,49.0,30.17,SW,227,5.0,16.0,95,0.08,,,0.23,weatherlink.com 1.10,2013-04-17 14:44:00,
2013-04-17 10:59:00,50.8,50.0,30.16,WSW,247,8.0,12.0,96,0.06,,,0.24,weatherlink.com 1.10,2013-04-17 14:59:00,
2013-04-17 11:14:00,51.2,50.0,30.16,WSW,243,3.0,9.0,95,0.07,,,0.28,weatherlink.com 1.10,2013-04-17 15:14:00,
2013-04-17 11:29:00,51.9,50.0,30.16,SSW,206,3.0,8.0,94,0.08,,,0.30,weatherlink.com 1.10,2013-04-17 15:29:00,
2013-04-17 11:44:00,52.4,49.0,30.16,SW,218,3.0,9.0,89,0.09,,,0.32,weatherlink.com 1.10,2013-04-17 15:44:00,
2013-04-17 11:59:00,52.7,49.0,30.16,SW,217,5.0,8.0,88,0.07,,,0.32,weatherlink.com 1.10,2013-04-17 15:59:00,
2013-04-17 12:14:00,53.3,50.0,30.16,WSW,242,4.0,8.0,89,0.04,,,0.32,weatherlink.com 1.10,2013-04-17 16:14:00,
2013-04-17 12:29:00,52.8,51.0,30.16,WSW,244,4.0,10.0,93,0.02,,,0.32,weatherlink.com 1.10,2013-04-17 16:29:00,
2013-04-17 12:44:00,53.0,51.0,30.16,SW,232,3.0,6.0,94,0.00,,,0.32,weatherlink.com 1.10,2013-04-17 16:44:00,
2013-04-17 12:59:00,53.6,52.0,30.16,West,271,2.0,5.0,94,0.00,,,0.32,weatherlink.com 1.10,2013-04-17 16:59:00,
2013-04-17 13:14:00,54.1,53.0,30.16,WSW,257,0.0,8.0,94,0.00,,,0.32,weatherlink.com 1.10,2013-04-17 17:14:00,
2013-04-17 13:29:00,52.2,51.0,30.16,SW,236,8.0,11.0,95,0.01,,,0.33,weatherlink.com 1.10,2013-04-17 17:29:00,
2013-04-17 13:44:00,51.7,51.0,30.16,SW,223,4.0,11.0,96,0.01,,,0.33,weatherlink.com 1.10,2013-04-17 17:44:00,
2013-04-17 13:59:00,51.7,51.0,30.15,WNW,290,2.0,14.0,97,0.01,,,0.33,weatherlink.com 1.10,2013-04-17 17:59:00,
2013-04-17 14:14:00,51.9,51.0,30.15,SW,231,6.0,13.0,97,0.01,,,0.33,weatherlink.com 1.10,2013-04-17 18:14:00,
2013-04-17 14:29:00,51.5,51.0,30.15,WSW,238,8.0,10.0,97,0.00,,,0.33,weatherlink.com 1.10,2013-04-17 18:29:00,
2013-04-17 14:44:00,51.8,51.0,30.15,South,186,0.0,7.0,97,0.00,,,0.33,weatherlink.com 1.10,2013-04-17 18:44:00,
2013-04-17 14:59:00,52.0,51.0,30.14,SE,135,1.0,4.0,97,0.00,,,0.33,weatherlink.com 1.10,2013-04-17 18:59:00,
2013-04-17 15:14:00,53.6,51.0,30.13,SSE,168,1.0,5.0,90,0.00,,,0.33,weatherlink.com 1.10,2013-04-17 19:14:00,
2013-04-17 15:29:00,55.5,51.0,30.11,SSW,200,6.0,7.0,84,0.00,,,0.33,weatherlink.com 1.10,2013-04-17 19:29:00,
2013-04-17 15:44:00,56.6,49.0,30.11,SSE,150,0.0,6.0,77,0.00,,,0.33,weatherlink.com 1.10,2013-04-17 19:44:00,
2013-04-17 15:59:00,58.5,47.0,30.09,WSW,246,0.0,4.0,65,0.00,,,0.33,weatherlink.com 1.10,2013-04-17 19:59:00,
2013-04-17 16:14:00,59.3,51.0,30.08,ENE,72,2.0,3.0,75,0.00,,,0.33,weatherlink.com 1.10,2013-04-17 20:14:00,
2013-04-17 16:29:00,59.6,52.0,30.08,ENE,73,2.0,3.0,76,0.00,,,0.33,weatherlink.com 1.10,2013-04-17 20:29:00,
2013-04-17 16:44:00,59.6,51.0,30.07,NE,45,2.0,3.0,74,0.00,,,0.33,weatherlink.com 1.10,2013-04-17 20:44:00,
2013-04-17 16:59:00,59.6,50.0,30.07,ENE,58,2.0,3.0,70,0.00,,,0.33,weatherlink.com 1.10,2013-04-17 20:59:00,
2013-04-17 17:14:00,59.4,51.0,30.07,ENE,63,3.0,5.0,73,0.00,,,0.33,weatherlink.com 1.10,2013-04-17 21:14:00,
2013-04-17 17:29:00,59.4,51.0,30.07,ENE,67,3.0,6.0,74,0.00,,,0.33,weatherlink.com 1.10,2013-04-17 21:29:00,
2013-04-17 17:45:00,59.6,52.0,30.09,South,178,0.0,6.0,76,0.00,,,0.33,weatherlink.com 1.10,2013-04-17 21:45:00,
2013-04-17 18:00:00,59.4,51.0,30.08,ENE,65,2.0,3.0,75,0.00,,,0.33,weatherlink.com 1.10,2013-04-17 22:00:00,
2013-04-17 18:15:00,59.2,52.0,30.09,ESE,104,0.0,2.0,77,0.00,,,0.33,weatherlink.com 1.10,2013-04-17 22:15:00,
2013-04-17 18:30:00,59.1,52.0,30.08,ENE,69,0.0,2.0,78,0.00,,,0.33,weatherlink.com 1.10,2013-04-17 22:30:00,
2013-04-17 18:45:00,58.9,52.0,30.07,ENE,69,0.0,1.0,78,0.00,,,0.33,weatherlink.com 1.10,2013-04-17 22:45:00,
2013-04-17 19:00:00,58.5,53.0,30.08,ENE,58,2.0,4.0,83,0.00,,,0.33,weatherlink.com 1.10,2013-04-17 23:00:00,
2013-04-17 19:15:00,57.7,54.0,30.08,NE,49,1.0,4.0,88,0.00,,,0.33,weatherlink.com 1.10,2013-04-17 23:15:00,
2013-04-17 19:30:00,56.8,54.0,30.08,NE,46,1.0,4.0,90,0.00,,,0.33,weatherlink.com 1.10,2013-04-17 23:30:00,
2013-04-17 19:45:00,55.7,54.0,30.08,NE,40,6.0,6.0,92,0.00,,,0.33,weatherlink.com 1.10,2013-04-17 23:45:00,
2013-04-17 20:00:00,55.1,54.0,30.07,NE,34,2.0,7.0,94,0.00,,,0.33,weatherlink.com 1.10,2013-04-18 00:00:00,
2013-04-17 20:15:00,54.7,53.0,30.07,NE,51,3.0,9.0,95,0.00,,,0.33,weatherlink.com 1.10,2013-04-18 00:15:00,
2013-04-17 20:30:00,54.4,53.0,30.07,ENE,61,4.0,7.0,96,0.00,,,0.33,weatherlink.com 1.10,2013-04-18 00:30:00,
2013-04-17 20:45:00,54.0,53.0,30.08,ENE,65,3.0,9.0,96,0.00,,,0.33,weatherlink.com 1.10,2013-04-18 00:45:00,
2013-04-17 21:00:00,53.7,53.0,30.09,ENE,65,4.0,7.0,96,0.00,,,0.33,weatherlink.com 1.10,2013-04-18 01:00:00,
2013-04-17 21:15:00,53.9,53.0,30.09,ENE,75,4.0,8.0,96,0.00,,,0.33,weatherlink.com 1.10,2013-04-18 01:15:00,
2013-04-17 21:45:00,53.6,52.0,30.09,ENE,62,4.0,8.0,95,0.00,,,0.33,weatherlink.com 1.10,2013-04-18 01:45:00,
2013-04-17 22:00:00,53.6,53.0,30.09,ENE,69,4.0,7.0,96,0.00,,,0.33,weatherlink.com 1.10,2013-04-18 02:00:00,
2013-04-17 22:15:00,53.5,52.0,30.08,ENE,63,4.0,7.0,96,0.00,,,0.33,weatherlink.com 1.10,2013-04-18 02:15:00,
2013-04-17 22:30:00,53.3,52.0,30.08,ENE,63,4.0,8.0,96,0.00,,,0.33,weatherlink.com 1.10,2013-04-18 02:30:00,
2013-04-17 22:45:00,53.0,52.0,30.08,ENE,68,4.0,8.0,97,0.00,,,0.33,weatherlink.com 1.10,2013-04-18 02:45:00,
2013-04-17 23:00:00,52.7,52.0,30.08,ENE,69,5.0,7.0,97,0.00,,,0.33,weatherlink.com 1.10,2013-04-18 03:00:00,
2013-04-17 23:15:00,53.3,53.0,30.07,ENE,77,5.0,7.0,97,0.00,,,0.33,weatherlink.com 1.10,2013-04-18 03:15:00,
2013-04-17 23:30:00,53.3,53.0,30.07,ENE,65,4.0,7.0,97,0.00,,,0.33,weatherlink.com 1.10,2013-04-18 03:30:00,
2013-04-17 23:45:00,53.1,52.0,30.06,ENE,78,4.0,7.0,97,0.00,,,0.33,weatherlink.com 1.10,2013-04-18 03:45:00,